createdAt,value
2024-01-11T00:01:53.615Z,49.47
2024-01-11T00:04:57.086Z,47.05
2024-01-11T00:08:00.181Z,43.92
2024-01-11T00:11:03.836Z,36.33
2024-01-11T00:14:06.720Z,49.83
2024-01-11T00:17:09.974Z,43.67
2024-01-11T00:20:13.168Z,42.42
2024-01-11T00:23:17.064Z,42.87
2024-01-11T00:26:20.206Z,36.58
2024-01-11T00:29:23.321Z,42.58
2024-01-11T00:32:26.272Z,44.25
2024-01-11T00:35:30.796Z,46.03
2024-01-11T00:38:34.205Z,46.13
2024-01-11T00:41:37.726Z,43.13
2024-01-11T00:44:40.616Z,39.67
2024-01-11T00:47:44.222Z,40.58
2024-01-11T00:50:48.449Z,45.85
2024-01-11T00:53:51.712Z,42.50
2024-01-11T00:56:54.801Z,41.53
2024-01-11T00:59:58.100Z,37.25
2024-01-11T01:03:00.873Z,34.28
2024-01-11T01:06:04.788Z,44.72
2024-01-11T01:09:07.892Z,40.10
2024-01-11T01:12:11.707Z,48.35
2024-01-11T01:15:18.135Z,49.83
2024-01-11T01:18:21.442Z,44.30
2024-01-11T01:21:24.534Z,40.65
2024-01-11T01:24:27.883Z,43.40
2024-01-11T01:27:30.845Z,40.67
2024-01-11T01:30:34.265Z,36.63
2024-01-11T01:33:37.462Z,47.30
2024-01-11T01:36:42.717Z,41.88
2024-01-11T01:39:45.886Z,39.50
2024-01-11T01:42:50.406Z,35.55
2024-01-11T01:45:54.057Z,37.00
2024-01-11T01:48:59.569Z,44.47
2024-01-11T01:52:04.573Z,36.95
2024-01-11T01:55:10.344Z,35.40
2024-01-11T01:58:14.568Z,33.30
2024-01-11T02:01:19.016Z,37.38
2024-01-11T02:04:24.271Z,44.13
2024-01-11T02:07:27.637Z,44.67
2024-01-11T02:10:34.234Z,32.42
2024-01-11T02:13:37.497Z,39.35
2024-01-11T02:16:40.440Z,43.73
2024-01-11T02:19:43.553Z,35.25
2024-01-11T02:22:51.890Z,31.02
2024-01-11T02:25:55.218Z,36.83
2024-01-11T02:28:59.637Z,47.15
2024-01-11T02:32:04.289Z,47.40
2024-01-11T02:35:07.829Z,44.83
2024-01-11T02:38:11.215Z,38.47
2024-01-11T02:41:17.337Z,41.80
2024-01-11T02:44:20.803Z,36.17
2024-01-11T02:47:23.741Z,35.30
2024-01-11T02:50:26.997Z,44.50
2024-01-11T02:53:35.637Z,236.05
2024-01-11T02:56:39.484Z,133.40
2024-01-11T02:59:44.741Z,65.62
2024-01-11T03:02:48.008Z,43.50
2024-01-11T03:05:50.970Z,35.28
2024-01-11T03:08:54.375Z,36.03
2024-01-11T03:11:57.236Z,35.78
2024-01-11T03:15:01.102Z,47.70
2024-01-11T03:18:04.525Z,42.03
2024-01-11T03:21:08.141Z,38.30
2024-01-11T03:24:11.141Z,36.35
2024-01-11T03:27:14.441Z,39.57
2024-01-11T03:30:18.035Z,33.25
2024-01-11T03:33:21.876Z,36.08
2024-01-11T03:36:28.812Z,31.35
2024-01-11T03:39:32.087Z,18.50
2024-01-11T03:42:35.439Z,30.65
2024-01-11T03:45:38.683Z,38.20
2024-01-11T03:48:41.813Z,30.63
2024-01-11T03:51:47.878Z,33.90
2024-01-11T03:54:52.102Z,43.87
2024-01-11T03:57:55.435Z,35.17
2024-01-11T04:00:58.688Z,33.03
2024-01-11T04:04:02.598Z,46.30
2024-01-11T04:07:05.922Z,38.28
2024-01-11T04:10:10.826Z,47.22
2024-01-11T04:13:14.972Z,42.00
2024-01-11T04:16:18.375Z,33.22
2024-01-11T04:19:23.707Z,36.03
2024-01-11T04:22:31.214Z,26.42
2024-01-11T04:25:34.480Z,32.70
2024-01-11T04:28:39.114Z,30.23
2024-01-11T04:31:43.749Z,32.92
2024-01-11T04:34:47.160Z,33.33
2024-01-11T04:37:50.075Z,28.08
2024-01-11T04:40:53.145Z,28.25
2024-01-11T04:43:56.400Z,34.13
2024-01-11T04:47:02.225Z,36.67
2024-01-11T04:50:06.277Z,36.77
2024-01-11T04:53:09.530Z,42.20
2024-01-11T04:56:17.809Z,37.95
2024-01-11T04:59:21.315Z,38.87
2024-01-11T05:02:24.731Z,45.60
2024-01-11T05:05:28.235Z,43.25
2024-01-11T05:08:31.840Z,37.17
2024-01-11T05:11:35.233Z,42.22
2024-01-11T05:14:39.885Z,44.42
2024-01-11T05:17:44.889Z,35.67
2024-01-11T05:20:50.986Z,50.57
2024-01-11T05:23:54.281Z,42.03
2024-01-11T05:26:57.268Z,45.72
2024-01-11T05:30:00.878Z,51.13
2024-01-11T05:33:05.305Z,34.72
2024-01-11T05:36:09.410Z,43.92
2024-01-11T05:39:13.663Z,40.85
2024-01-11T05:42:21.293Z,48.85
2024-01-11T05:45:29.197Z,45.97
2024-01-11T05:48:43.520Z,50.60
2024-01-11T05:51:46.949Z,43.57
2024-01-11T05:54:50.314Z,37.83
2024-01-11T05:57:53.458Z,37.03
2024-01-11T06:00:57.131Z,47.90
2024-01-11T06:04:00.580Z,42.72
2024-01-11T06:07:03.867Z,41.30
2024-01-11T06:10:07.853Z,39.95
2024-01-11T06:13:11.188Z,33.15
2024-01-11T06:16:15.177Z,40.58
2024-01-11T06:19:18.513Z,38.17
2024-01-11T06:22:22.479Z,40.87
2024-01-11T06:25:25.793Z,38.00
2024-01-11T06:28:29.170Z,29.23
2024-01-11T06:31:32.292Z,41.77
2024-01-11T06:34:37.390Z,36.47
2024-01-11T06:37:40.395Z,61.60
2024-01-11T06:40:44.976Z,88.12
2024-01-11T06:43:48.084Z,55.30
2024-01-11T06:46:52.160Z,33.47
2024-01-11T06:49:55.319Z,32.97
2024-01-11T06:52:58.557Z,35.13
2024-01-11T06:56:02.181Z,38.15
2024-01-11T06:59:05.681Z,58.13
2024-01-11T07:02:09.202Z,58.47
2024-01-11T07:05:13.953Z,38.70
2024-01-11T07:08:17.051Z,82.53
2024-01-11T07:11:20.680Z,48.10
2024-01-11T07:14:24.232Z,73.72
2024-01-11T07:17:27.802Z,64.57
2024-01-11T07:20:31.256Z,48.13
2024-01-11T07:23:35.840Z,63.97
2024-01-11T07:26:38.650Z,66.72
2024-01-11T07:29:42.080Z,42.72
2024-01-11T07:32:45.159Z,52.17
2024-01-11T07:35:49.537Z,42.95
2024-01-11T07:38:52.931Z,30.10
2024-01-11T07:41:56.993Z,47.92
2024-01-11T07:45:00.385Z,39.70
2024-01-11T07:48:05.292Z,41.90
2024-01-11T07:51:09.044Z,77.65
2024-01-11T07:54:12.513Z,53.60
2024-01-11T07:57:15.504Z,50.85
2024-01-11T08:00:18.969Z,52.03
2024-01-11T08:03:22.258Z,52.03
2024-01-11T08:06:25.761Z,49.15
2024-01-11T08:09:29.957Z,49.63
2024-01-11T08:12:33.064Z,89.93
2024-01-11T08:15:36.521Z,63.85
2024-01-11T08:18:39.544Z,92.50
2024-01-11T08:21:43.562Z,88.20
2024-01-11T08:24:46.777Z,76.60
2024-01-11T08:27:50.214Z,98.97
2024-01-11T08:30:53.586Z,55.92
2024-01-11T08:33:58.675Z,89.43
2024-01-11T08:37:01.885Z,76.70
2024-01-11T08:40:07.266Z,78.95
2024-01-11T08:43:12.661Z,75.47
2024-01-11T08:46:27.826Z,74.10
2024-01-11T08:49:31.925Z,67.57
2024-01-11T08:52:38.235Z,59.83
2024-01-11T08:55:43.332Z,60.80
2024-01-11T08:58:48.180Z,58.03
2024-01-11T09:01:57.750Z,55.08
2024-01-11T09:05:15.932Z,57.90
2024-01-11T09:08:19.134Z,60.25
2024-01-11T09:11:23.133Z,45.40
2024-01-11T09:14:27.065Z,44.47
2024-01-11T09:17:30.680Z,47.10
2024-01-11T09:20:35.279Z,40.72
2024-01-11T09:23:39.428Z,50.28
2024-01-11T09:26:43.629Z,43.13
2024-01-11T09:29:50.078Z,36.27
2024-01-11T09:32:54.722Z,38.13
2024-01-11T09:35:58.340Z,34.35
2024-01-11T09:39:01.733Z,35.05
2024-01-11T09:42:14.114Z,35.30
2024-01-11T09:45:18.721Z,36.50
2024-01-11T09:48:24.611Z,38.80
2024-01-11T09:51:30.630Z,33.17
2024-01-11T09:54:33.926Z,31.05
2024-01-11T09:57:42.261Z,37.70
2024-01-11T10:00:48.356Z,36.17
2024-01-11T10:03:54.504Z,39.80
2024-01-11T10:06:58.846Z,37.72
2024-01-11T10:10:04.755Z,41.03
2024-01-11T10:13:08.459Z,37.67
2024-01-11T10:16:16.719Z,34.70
2024-01-11T10:19:23.063Z,36.20
2024-01-11T10:22:27.508Z,36.33
2024-01-11T10:25:30.892Z,30.70
2024-01-11T10:28:39.179Z,28.62
2024-01-11T10:31:42.475Z,32.73
2024-01-11T10:34:46.202Z,26.37
2024-01-11T10:37:52.466Z,24.70
2024-01-11T10:40:57.790Z,24.00
2024-01-11T10:44:03.155Z,26.60
2024-01-11T10:47:10.975Z,22.10
2024-01-11T10:50:15.089Z,22.20
2024-01-11T10:53:41.746Z,14.95
2024-01-11T10:56:45.251Z,24.23
2024-01-11T10:59:50.189Z,23.70
2024-01-11T11:02:56.107Z,22.93
2024-01-11T11:06:01.022Z,21.43
2024-01-11T11:09:07.723Z,22.15
2024-01-11T11:12:12.544Z,24.73
2024-01-11T11:15:16.577Z,21.17
2024-01-11T11:18:26.433Z,24.03
2024-01-11T11:21:30.243Z,23.00
2024-01-11T11:24:36.670Z,22.37
2024-01-11T11:27:39.577Z,14.27
2024-01-11T11:30:44.494Z,25.98
2024-01-11T11:33:51.630Z,21.60
2024-01-11T11:36:57.369Z,20.03
2024-01-11T11:40:02.057Z,18.00
2024-01-11T11:43:06.905Z,13.20
2024-01-11T11:46:10.321Z,18.50
2024-01-11T11:49:15.016Z,20.57
2024-01-11T11:52:19.189Z,15.40
2024-01-11T11:55:25.739Z,22.75
2024-01-11T11:58:30.411Z,13.10
2024-01-11T12:01:35.346Z,21.92
2024-01-11T12:04:40.862Z,19.97
2024-01-11T12:07:44.179Z,16.37
2024-01-11T12:14:05.672Z,20.92
2024-01-11T12:17:10.632Z,15.27
2024-01-11T12:20:14.557Z,18.27
2024-01-11T12:23:20.216Z,20.73
2024-01-11T12:26:24.276Z,21.48
2024-01-11T12:29:36.810Z,24.63
2024-01-11T12:32:48.324Z,18.23
2024-01-11T12:35:51.965Z,25.80
2024-01-11T12:38:55.353Z,20.03
2024-01-11T12:41:59.328Z,17.65
2024-01-11T12:45:03.161Z,22.80
2024-01-11T12:48:12.490Z,20.52
2024-01-11T12:51:21.689Z,20.60
2024-01-11T12:54:26.168Z,22.27
2024-01-11T12:57:31.242Z,20.62
2024-01-11T13:00:34.612Z,22.55
2024-01-11T13:03:40.056Z,26.85
2024-01-11T13:06:43.863Z,22.63
2024-01-11T13:09:47.083Z,24.37
2024-01-11T13:12:56.754Z,17.55
2024-01-11T13:16:13.035Z,20.90
2024-01-11T13:19:24.229Z,24.27
2024-01-11T13:22:32.446Z,26.27
2024-01-11T13:25:37.825Z,23.40
2024-01-11T13:28:42.047Z,24.63
2024-01-11T13:31:45.858Z,26.37
2024-01-11T13:34:49.125Z,31.50
2024-01-11T13:37:52.870Z,27.70
2024-01-11T13:40:56.138Z,33.10
2024-01-11T13:44:01.495Z,29.63
2024-01-11T13:47:04.818Z,32.35
2024-01-11T13:50:09.239Z,36.45
2024-01-11T13:53:12.827Z,28.20
2024-01-11T13:56:17.593Z,24.23
2024-01-11T13:59:21.342Z,19.55
2024-01-11T14:02:25.387Z,23.50
2024-01-11T14:05:29.932Z,12.52
2024-01-11T14:08:33.644Z,44.13
2024-01-11T14:11:37.742Z,29.65
2024-01-11T14:14:40.755Z,41.63
2024-01-11T14:17:44.262Z,41.15
2024-01-11T14:20:47.979Z,39.97
2024-01-11T14:23:52.674Z,23.73
2024-01-11T14:26:55.885Z,36.60
2024-01-11T14:29:59.195Z,41.88
2024-01-11T14:33:03.609Z,42.67
2024-01-11T14:36:07.935Z,17.30
2024-01-11T14:39:11.410Z,46.28
2024-01-11T14:42:14.696Z,31.02
2024-01-11T14:45:18.608Z,37.65
2024-01-11T14:48:24.999Z,16.65
2024-01-11T14:51:32.864Z,23.45
2024-01-11T14:54:38.324Z,44.05
2024-01-11T14:57:41.873Z,34.85
2024-01-11T15:00:45.891Z,46.73
2024-01-11T15:03:49.483Z,45.80
2024-01-11T15:06:54.735Z,20.67
2024-01-11T15:09:58.106Z,35.42
2024-01-11T15:13:01.516Z,47.40
2024-01-11T15:16:04.906Z,43.78
2024-01-11T15:19:08.166Z,49.80
2024-01-11T15:22:13.823Z,46.03
2024-01-11T15:25:18.767Z,30.88
2024-01-11T15:28:23.907Z,50.35
2024-01-11T15:31:28.466Z,43.75
2024-01-11T15:34:31.601Z,54.97
2024-01-11T15:37:37.692Z,43.03
2024-01-11T15:40:40.651Z,47.47
2024-01-11T15:43:48.803Z,19.80
2024-01-11T15:46:51.868Z,35.37
2024-01-11T15:49:55.410Z,38.40
2024-01-11T15:52:58.478Z,39.50
2024-01-11T15:56:02.272Z,17.23
2024-01-11T15:59:05.308Z,44.80
2024-01-11T16:02:10.043Z,53.28
2024-01-11T16:05:13.693Z,46.37
2024-01-11T16:08:18.475Z,48.55
2024-01-11T16:11:23.586Z,49.72
2024-01-11T16:14:26.600Z,42.45
2024-01-11T16:17:32.228Z,44.08
2024-01-11T16:20:39.458Z,49.00
2024-01-11T16:23:43.597Z,47.25
2024-01-11T16:26:46.751Z,43.80
2024-01-11T16:29:50.430Z,50.72
2024-01-11T16:32:53.410Z,43.10
2024-01-11T16:35:59.278Z,41.20
2024-01-11T16:39:04.562Z,46.92
2024-01-11T16:42:13.385Z,45.10
2024-01-11T16:45:16.643Z,43.30
2024-01-11T16:48:20.202Z,42.42
2024-01-11T16:51:23.854Z,40.88
2024-01-11T16:54:27.233Z,49.90
2024-01-11T16:57:30.368Z,42.17
2024-01-11T17:00:33.738Z,46.90
2024-01-11T17:03:38.150Z,41.55
2024-01-11T17:06:41.803Z,51.53
2024-01-11T17:09:44.780Z,51.00
2024-01-11T17:12:49.299Z,52.65
2024-01-11T17:15:52.412Z,45.30
2024-01-11T17:18:55.991Z,45.50
2024-01-11T17:21:58.980Z,42.80
2024-01-11T17:25:03.526Z,41.80
2024-01-11T17:28:06.609Z,44.93
2024-01-11T17:31:09.846Z,55.45
2024-01-11T17:34:12.985Z,53.20
2024-01-11T17:37:22.043Z,54.63
2024-01-11T17:40:25.091Z,53.63
2024-01-11T17:43:29.652Z,58.97
2024-01-11T17:46:33.732Z,57.88
2024-01-11T17:49:45.867Z,55.13
2024-01-11T17:52:51.287Z,58.53
2024-01-11T17:55:55.533Z,49.05
2024-01-11T17:58:58.299Z,58.75
2024-01-11T18:02:02.259Z,46.03
2024-01-11T18:05:06.202Z,50.25
2024-01-11T18:08:09.437Z,53.30
2024-01-11T18:11:13.890Z,50.40
2024-01-11T18:14:18.000Z,47.92
2024-01-11T18:17:21.599Z,46.37
2024-01-11T18:20:24.510Z,42.00
2024-01-11T18:23:28.835Z,44.65
2024-01-11T18:26:31.794Z,46.63
2024-01-11T18:29:35.985Z,50.75
2024-01-11T18:32:39.005Z,39.10
2024-01-11T18:35:44.798Z,41.50
2024-01-11T18:38:48.351Z,43.85
2024-01-11T18:41:54.806Z,46.58
2024-01-11T18:44:59.397Z,65.03
2024-01-11T18:48:07.205Z,49.80
2024-01-11T18:51:10.338Z,60.45
2024-01-11T18:54:13.946Z,54.47
2024-01-11T18:57:17.536Z,57.78
2024-01-11T19:00:21.679Z,54.70
2024-01-11T19:03:25.653Z,53.67
2024-01-11T19:06:31.118Z,46.03
2024-01-11T19:09:34.353Z,48.08
2024-01-11T19:12:39.565Z,44.13
2024-01-11T19:15:42.651Z,44.50
2024-01-11T19:18:46.984Z,46.72
2024-01-11T19:21:51.195Z,36.50
2024-01-11T19:24:54.496Z,42.03
2024-01-11T19:28:01.057Z,44.57
2024-01-11T19:31:06.899Z,45.17
2024-01-11T19:34:11.676Z,49.95
2024-01-11T19:37:19.464Z,47.05
2024-01-11T19:40:24.547Z,49.30
2024-01-11T19:43:28.378Z,56.88
2024-01-11T19:46:35.113Z,46.25
2024-01-11T19:49:39.181Z,47.62
2024-01-11T19:52:43.078Z,47.37
2024-01-11T19:55:49.032Z,58.15
2024-01-11T19:58:53.848Z,57.92
2024-01-11T20:01:59.399Z,60.63
2024-01-11T20:05:06.393Z,56.65
2024-01-11T20:08:09.790Z,53.13
2024-01-11T20:11:13.926Z,59.63
2024-01-11T20:14:19.718Z,58.57
2024-01-11T20:17:23.775Z,48.65
2024-01-11T20:20:26.612Z,59.03
2024-01-11T20:23:30.685Z,57.55
2024-01-11T20:26:33.971Z,57.10
2024-01-11T20:29:37.148Z,54.70
2024-01-11T20:32:40.565Z,58.33
2024-01-11T20:35:45.043Z,64.25
2024-01-11T20:38:48.216Z,54.53
2024-01-11T20:41:51.874Z,60.42
2024-01-11T20:44:55.033Z,50.08
2024-01-11T20:47:58.702Z,50.60
2024-01-11T20:51:02.978Z,48.17
2024-01-11T20:54:06.331Z,49.13
2024-01-11T20:57:11.246Z,44.28
2024-01-11T21:00:17.840Z,41.50
2024-01-11T21:03:21.518Z,71.47
2024-01-11T21:06:24.829Z,61.22
2024-01-11T21:09:27.841Z,50.25
2024-01-11T21:12:31.043Z,61.77
2024-01-11T21:15:34.230Z,64.20
2024-01-11T21:18:37.829Z,69.72
2024-01-11T21:21:41.666Z,56.15
2024-01-11T21:24:46.184Z,43.63
2024-01-11T21:27:50.058Z,39.33
2024-01-11T21:30:53.410Z,35.13
2024-01-11T21:33:57.197Z,31.62
2024-01-11T21:37:02.341Z,32.15
2024-01-11T21:40:05.779Z,30.50
2024-01-11T21:43:10.080Z,23.17
2024-01-11T21:46:13.963Z,33.50
2024-01-11T21:49:20.370Z,31.48
2024-01-11T21:52:24.643Z,30.52
2024-01-11T21:55:27.829Z,21.02
2024-01-11T21:58:31.295Z,16.30
2024-01-11T22:01:42.862Z,29.77
2024-01-11T22:04:46.281Z,28.60
2024-01-11T22:07:50.461Z,25.17
2024-01-11T22:10:55.766Z,26.02
2024-01-11T22:13:59.450Z,30.05
2024-01-11T22:17:03.101Z,32.33
2024-01-11T22:20:07.081Z,23.03
2024-01-11T22:23:10.972Z,22.13
2024-01-11T22:26:13.919Z,33.05
2024-01-11T22:29:17.083Z,23.12
2024-01-11T22:32:20.004Z,31.30
2024-01-11T22:35:23.458Z,29.17
2024-01-11T22:38:29.453Z,31.42
2024-01-11T22:41:39.844Z,22.60
2024-01-11T22:44:45.378Z,28.48
2024-01-11T22:47:48.765Z,30.42
2024-01-11T22:50:51.847Z,30.77
2024-01-11T22:53:55.240Z,25.62
2024-01-11T22:56:58.393Z,27.70
2024-01-11T23:00:04.328Z,32.55
2024-01-11T23:03:07.326Z,29.53
2024-01-11T23:06:12.113Z,32.33
2024-01-11T23:09:15.029Z,33.22
2024-01-11T23:12:20.390Z,37.25
2024-01-11T23:15:23.917Z,22.33
2024-01-11T23:18:27.977Z,30.83
2024-01-11T23:21:30.912Z,32.83
2024-01-11T23:24:34.635Z,29.70
2024-01-11T23:27:37.705Z,35.92
2024-01-11T23:30:42.136Z,26.17
2024-01-11T23:33:45.387Z,31.23
2024-01-11T23:36:48.918Z,34.00
2024-01-11T23:39:52.012Z,28.83
2024-01-11T23:42:55.340Z,30.15
2024-01-11T23:45:58.486Z,16.80
2024-01-11T23:49:03.131Z,27.00
2024-01-11T23:52:07.031Z,16.77
2024-01-11T23:55:10.362Z,28.65
2024-01-11T23:58:13.524Z,28.25
